createdAt,value
2022-11-19T00:01:27.551Z,2.97
2022-11-19T00:03:54.973Z,3.15
2022-11-19T00:06:24.337Z,3.63
2022-11-19T00:08:51.593Z,3.10
2022-11-19T00:11:41.132Z,3.50
2022-11-19T00:14:09.354Z,3.75
2022-11-19T00:16:35.994Z,4.18
2022-11-19T00:19:03.104Z,3.60
2022-11-19T00:21:29.757Z,4.10
2022-11-19T00:23:56.768Z,4.00
2022-11-19T00:26:23.819Z,3.58
2022-11-19T00:28:50.895Z,4.10
2022-11-19T00:31:18.270Z,3.78
2022-11-19T00:33:45.530Z,4.07
2022-11-19T00:36:14.803Z,3.47
2022-11-19T00:38:41.902Z,3.42
2022-11-19T00:41:08.967Z,3.75
2022-11-19T00:43:47.984Z,3.00
2022-11-19T00:46:24.975Z,3.00
2022-11-19T00:48:54.302Z,3.17
2022-11-19T00:51:22.648Z,3.63
2022-11-19T00:53:49.550Z,3.28
2022-11-19T00:56:18.622Z,3.45
2022-11-19T00:58:45.951Z,2.85
2022-11-19T01:01:14.312Z,3.15
2022-11-19T01:03:41.941Z,2.70
2022-11-19T01:06:09.853Z,2.90
2022-11-19T01:08:37.287Z,3.15
2022-11-19T01:11:10.275Z,2.97
2022-11-19T01:13:37.793Z,3.20
2022-11-19T01:16:16.007Z,3.35
2022-11-19T01:18:44.366Z,2.63
2022-11-19T01:21:12.507Z,3.67
2022-11-19T01:23:40.937Z,2.72
2022-11-19T01:26:08.394Z,3.30
2022-11-19T01:28:35.821Z,3.10
2022-11-19T01:31:10.658Z,3.38
2022-11-19T01:33:38.135Z,3.33
2022-11-19T01:36:08.163Z,2.95
2022-11-19T01:38:36.082Z,3.88
2022-11-19T01:41:03.974Z,3.58
2022-11-19T01:43:44.581Z,4.07
2022-11-19T01:46:14.163Z,4.22
2022-11-19T01:48:52.102Z,3.97
2022-11-19T01:51:27.323Z,4.93
2022-11-19T01:53:57.466Z,4.45
2022-11-19T01:56:25.459Z,4.65
2022-11-19T01:58:58.829Z,4.35
2022-11-19T02:01:25.879Z,4.25
2022-11-19T02:03:52.762Z,4.28
2022-11-19T02:06:19.718Z,4.18
2022-11-19T02:08:49.962Z,4.13
2022-11-19T02:11:25.858Z,3.80
2022-11-19T02:14:11.420Z,4.15
2022-11-19T02:16:47.894Z,4.75
2022-11-19T02:19:14.534Z,4.13
2022-11-19T02:21:52.664Z,4.93
2022-11-19T02:24:44.792Z,4.65
2022-11-19T02:27:37.332Z,4.20
2022-11-19T02:30:03.922Z,4.55
2022-11-19T02:32:59.947Z,4.40
2022-11-19T02:35:36.048Z,4.57
2022-11-19T02:38:13.559Z,3.92
2022-11-19T02:40:48.731Z,4.07
2022-11-19T02:43:41.221Z,3.42
2022-11-19T02:46:15.189Z,3.28
2022-11-19T02:48:52.438Z,3.67
2022-11-19T02:51:19.189Z,4.20
2022-11-19T02:53:48.754Z,3.00
2022-11-19T02:56:48.930Z,3.78
2022-11-19T02:59:37.758Z,4.10
2022-11-19T03:02:24.846Z,4.05
2022-11-19T03:04:52.636Z,4.30
2022-11-19T03:07:20.099Z,3.75
2022-11-19T03:09:52.850Z,4.18
2022-11-19T03:12:29.093Z,3.38
2022-11-19T03:15:23.856Z,3.65
2022-11-19T03:18:06.752Z,4.20
2022-11-19T03:20:40.683Z,3.92
2022-11-19T03:23:16.432Z,4.05
2022-11-19T03:25:52.323Z,3.70
2022-11-19T03:28:27.260Z,3.85
2022-11-19T03:30:56.810Z,4.07
2022-11-19T03:33:28.966Z,3.58
2022-11-19T03:36:12.318Z,4.10
2022-11-19T03:38:46.864Z,4.60
2022-11-19T03:41:17.190Z,4.20
2022-11-19T03:43:48.434Z,4.00
2022-11-19T03:46:18.426Z,4.65
2022-11-19T03:48:47.434Z,4.40
2022-11-19T03:51:22.169Z,4.60
2022-11-19T03:53:49.100Z,4.13
2022-11-19T03:56:21.772Z,4.82
2022-11-19T03:58:48.388Z,4.15
2022-11-19T04:01:15.771Z,4.28
2022-11-19T04:04:02.430Z,4.32
2022-11-19T04:06:29.135Z,3.88
2022-11-19T04:08:55.729Z,4.18
2022-11-19T04:13:47.853Z,4.45
2022-11-19T04:16:14.477Z,4.35
2022-11-19T04:18:41.137Z,3.70
2022-11-19T04:21:07.710Z,3.80
2022-11-19T04:23:34.345Z,4.00
2022-11-19T04:26:01.063Z,4.45
2022-11-19T04:28:27.677Z,4.28
2022-11-19T04:30:54.309Z,4.03
2022-11-19T04:33:20.942Z,5.22
2022-11-19T04:35:47.584Z,4.28
2022-11-19T04:38:14.223Z,3.90
2022-11-19T04:40:42.110Z,4.10
2022-11-19T04:43:08.657Z,4.30
2022-11-19T04:45:35.258Z,4.28
2022-11-19T04:48:02.003Z,4.40
2022-11-19T04:50:28.669Z,4.50
2022-11-19T04:52:55.275Z,4.60
2022-11-19T04:55:21.903Z,4.60
2022-11-19T04:57:51.657Z,4.97
2022-11-19T05:00:18.409Z,4.13
2022-11-19T05:02:45.519Z,4.10
2022-11-19T05:05:12.149Z,4.10
2022-11-19T05:07:38.831Z,4.20
2022-11-19T05:10:05.949Z,3.72
2022-11-19T05:12:32.591Z,4.35
2022-11-19T05:14:59.238Z,3.90
2022-11-19T05:17:26.137Z,3.78
2022-11-19T05:19:52.697Z,4.28
2022-11-19T05:22:19.303Z,5.15
2022-11-19T05:24:45.950Z,5.13
2022-11-19T05:27:12.589Z,5.22
2022-11-19T05:29:39.178Z,4.75
2022-11-19T05:32:05.781Z,5.68
2022-11-19T05:34:32.454Z,4.60
2022-11-19T05:36:59.162Z,2.95
2022-11-19T05:39:26.197Z,3.95
2022-11-19T05:41:52.962Z,3.95
2022-11-19T05:44:19.552Z,7.90
2022-11-19T05:46:46.166Z,4.70
2022-11-19T05:49:12.773Z,2.80
2022-11-19T05:51:39.460Z,2.03
2022-11-19T05:54:06.122Z,1.50
2022-11-19T05:56:33.202Z,1.60
2022-11-19T05:58:59.788Z,1.90
2022-11-19T06:01:28.017Z,2.65
2022-11-19T06:03:54.886Z,1.63
2022-11-19T06:06:22.265Z,2.13
2022-11-19T06:08:49.525Z,1.50
2022-11-19T06:11:34.528Z,1.80
2022-11-19T06:14:01.809Z,1.42
2022-11-19T06:16:28.465Z,1.58
2022-11-19T06:18:55.236Z,1.80
2022-11-19T06:21:22.201Z,1.73
2022-11-19T06:23:48.802Z,1.60
2022-11-19T06:26:26.064Z,1.70
2022-11-19T06:28:53.055Z,1.55
2022-11-19T06:31:20.120Z,2.10
2022-11-19T06:33:46.822Z,1.45
2022-11-19T06:36:14.474Z,1.67
2022-11-19T06:38:41.398Z,1.13
2022-11-19T06:41:08.309Z,1.40
2022-11-19T06:43:34.953Z,5.20
2022-11-19T06:46:01.709Z,1.70
2022-11-19T06:48:28.356Z,1.60
2022-11-19T06:50:54.963Z,1.65
2022-11-19T06:53:21.644Z,1.50
2022-11-19T06:55:48.327Z,1.45
2022-11-19T06:58:15.331Z,1.75
2022-11-19T07:00:42.114Z,2.00
2022-11-19T07:03:09.021Z,2.17
2022-11-19T07:05:35.660Z,2.50
2022-11-19T07:08:03.475Z,2.00
2022-11-19T07:10:31.649Z,1.50
2022-11-19T07:12:58.340Z,1.75
2022-11-19T07:15:25.023Z,2.58
2022-11-19T07:17:51.933Z,2.58
2022-11-19T07:20:18.736Z,2.00
2022-11-19T07:22:45.332Z,2.22
2022-11-19T07:25:13.005Z,2.28
2022-11-19T07:27:40.462Z,1.80
2022-11-19T07:30:07.936Z,5.25
2022-11-19T07:32:34.624Z,4.90
2022-11-19T07:35:01.480Z,3.30
2022-11-19T07:37:28.089Z,3.53
2022-11-19T07:39:54.686Z,2.85
2022-11-19T07:42:39.837Z,2.90
2022-11-19T07:45:09.373Z,5.28
2022-11-19T07:47:36.028Z,4.57
2022-11-19T07:50:03.041Z,3.47
2022-11-19T07:52:30.684Z,3.80
2022-11-19T07:54:57.360Z,8.50
2022-11-19T07:57:29.850Z,5.60
2022-11-19T07:59:56.984Z,11.65
2022-11-19T08:02:23.616Z,4.85
2022-11-19T08:04:50.272Z,4.35
2022-11-19T08:07:17.063Z,4.25
2022-11-19T08:09:43.843Z,3.90
2022-11-19T08:12:10.505Z,5.13
2022-11-19T08:14:37.185Z,4.63
2022-11-19T08:17:22.473Z,5.25
2022-11-19T08:19:49.119Z,3.88
2022-11-19T08:22:15.887Z,4.05
2022-11-19T08:24:42.505Z,4.18
2022-11-19T08:27:09.171Z,6.00
2022-11-19T08:29:35.830Z,4.07
2022-11-19T08:32:02.517Z,4.20
2022-11-19T08:34:31.953Z,3.97
2022-11-19T08:36:58.611Z,4.82
2022-11-19T08:39:25.428Z,4.72
2022-11-19T08:42:10.763Z,4.85
2022-11-19T08:44:37.530Z,5.70
2022-11-19T08:47:04.259Z,7.25
2022-11-19T08:49:30.982Z,6.20
2022-11-19T08:51:57.877Z,6.10
2022-11-19T08:54:24.754Z,5.70
2022-11-19T08:56:51.465Z,6.07
2022-11-19T08:59:18.640Z,6.25
2022-11-19T09:01:45.926Z,8.77
2022-11-19T09:04:12.648Z,8.18
2022-11-19T09:06:39.386Z,7.35
2022-11-19T09:09:06.122Z,7.25
2022-11-19T09:11:33.051Z,28.95
2022-11-19T09:13:59.856Z,10.90
2022-11-19T09:16:26.898Z,20.40
2022-11-19T09:18:53.667Z,8.40
2022-11-19T09:21:20.438Z,6.40
2022-11-19T09:23:47.156Z,6.03
2022-11-19T09:26:34.186Z,8.55
2022-11-19T09:29:00.965Z,14.77
2022-11-19T09:31:27.725Z,10.60
2022-11-19T09:33:54.692Z,6.75
2022-11-19T09:36:21.568Z,5.50
2022-11-19T09:38:48.983Z,6.55
2022-11-19T09:41:33.808Z,7.35
2022-11-19T09:44:19.387Z,6.75
2022-11-19T09:47:02.791Z,6.05
2022-11-19T09:50:13.313Z,6.65
2022-11-19T09:52:45.929Z,6.45
2022-11-19T09:55:19.526Z,7.25
2022-11-19T09:57:51.302Z,6.85
2022-11-19T10:00:22.007Z,6.53
2022-11-19T10:02:49.593Z,6.25
2022-11-19T10:05:33.955Z,6.03
2022-11-19T10:08:12.851Z,7.30
2022-11-19T10:10:51.300Z,5.78
2022-11-19T10:13:18.019Z,4.90
2022-11-19T10:15:55.485Z,5.35
2022-11-19T10:18:30.772Z,5.57
2022-11-19T10:21:33.539Z,5.10
2022-11-19T10:24:25.415Z,5.90
2022-11-19T10:27:07.283Z,6.90
2022-11-19T10:29:39.021Z,6.97
2022-11-19T10:32:38.880Z,6.05
2022-11-19T10:35:17.516Z,5.15
2022-11-19T10:38:00.274Z,9.20
2022-11-19T10:40:35.652Z,7.72
2022-11-19T10:43:22.119Z,5.13
2022-11-19T10:45:50.225Z,5.13
2022-11-19T10:48:25.348Z,4.68
2022-11-19T10:50:52.361Z,6.78
2022-11-19T10:53:36.531Z,6.85
2022-11-19T10:56:22.062Z,6.55
2022-11-19T10:58:54.396Z,6.18
2022-11-19T11:01:28.309Z,5.93
2022-11-19T11:04:07.399Z,5.90
2022-11-19T11:06:59.181Z,6.15
2022-11-19T11:09:32.248Z,4.20
2022-11-19T11:12:27.743Z,4.07
2022-11-19T11:15:00.886Z,4.78
2022-11-19T11:17:29.327Z,3.90
2022-11-19T11:20:20.297Z,3.50
2022-11-19T11:22:50.569Z,3.65
2022-11-19T11:25:27.878Z,3.42
2022-11-19T11:28:18.551Z,3.03
2022-11-19T11:30:57.136Z,3.47
2022-11-19T11:33:33.810Z,3.45
2022-11-19T11:36:04.708Z,3.95
2022-11-19T11:38:32.064Z,5.30
2022-11-19T11:44:02.605Z,4.25
2022-11-19T11:46:44.153Z,2.72
2022-11-19T11:49:27.894Z,2.30
2022-11-19T11:52:22.701Z,2.60
2022-11-19T11:55:00.461Z,6.07
2022-11-19T11:57:29.059Z,3.35
2022-11-19T11:59:56.228Z,3.70
2022-11-19T12:02:30.605Z,4.65
2022-11-19T12:05:02.021Z,4.30
2022-11-19T12:07:43.873Z,4.55
2022-11-19T12:10:28.790Z,5.07
2022-11-19T12:13:16.499Z,5.00
2022-11-19T12:15:49.465Z,5.60
2022-11-19T12:18:31.365Z,5.05
2022-11-19T12:21:12.099Z,5.03
2022-11-19T12:24:23.895Z,4.03
2022-11-19T12:26:59.278Z,5.57
2022-11-19T12:29:50.490Z,5.40
2022-11-19T12:32:58.607Z,4.55
2022-11-19T12:35:51.273Z,5.60
2022-11-19T12:38:23.930Z,4.50
2022-11-19T12:41:18.119Z,4.78
2022-11-19T12:44:27.510Z,4.70
2022-11-19T12:47:08.730Z,4.55
2022-11-19T12:50:00.493Z,3.97
2022-11-19T12:52:44.089Z,6.30
2022-11-19T12:55:28.990Z,6.53
2022-11-19T12:58:17.589Z,8.05
2022-11-19T13:00:53.613Z,8.77
2022-11-19T13:03:28.141Z,7.30
2022-11-19T13:06:03.013Z,6.72
2022-11-19T13:08:39.238Z,8.98
2022-11-19T13:11:36.464Z,3.90
2022-11-19T13:14:32.123Z,3.75
2022-11-19T13:17:00.012Z,4.80
2022-11-19T13:19:33.325Z,3.17
2022-11-19T13:22:11.124Z,3.30
2022-11-19T13:24:44.497Z,3.70
2022-11-19T13:27:20.239Z,3.78
2022-11-19T13:30:06.547Z,4.25
2022-11-19T13:32:39.399Z,3.83
2022-11-19T13:35:22.637Z,8.90
2022-11-19T13:37:58.893Z,2.15
2022-11-19T13:40:36.380Z,2.70
2022-11-19T13:43:31.951Z,2.90
2022-11-19T13:46:19.876Z,2.22
2022-11-19T13:49:00.581Z,3.53
2022-11-19T13:51:52.954Z,3.25
2022-11-19T13:54:29.999Z,3.58
2022-11-19T13:56:58.231Z,2.65
2022-11-19T13:59:48.093Z,2.55
2022-11-19T14:02:56.333Z,3.00
2022-11-19T14:05:47.814Z,2.70
2022-11-19T14:08:45.567Z,1.88
2022-11-19T14:11:30.651Z,2.10
2022-11-19T14:14:37.611Z,2.50
2022-11-19T14:17:46.022Z,4.45
2022-11-19T14:20:50.170Z,3.10
2022-11-19T14:24:08.368Z,3.67
2022-11-19T14:26:40.717Z,6.43
2022-11-19T14:29:26.046Z,8.77
2022-11-19T14:32:06.092Z,4.50
2022-11-19T14:34:34.810Z,3.65
2022-11-19T14:37:11.822Z,2.90
2022-11-19T14:39:45.263Z,8.63
2022-11-19T14:42:20.092Z,8.98
2022-11-19T14:45:06.693Z,2.72
2022-11-19T14:47:38.796Z,3.47
2022-11-19T14:50:08.971Z,5.07
2022-11-19T14:52:53.670Z,7.18
2022-11-19T14:55:32.949Z,6.35
2022-11-19T14:58:07.581Z,4.93
2022-11-19T15:00:40.654Z,5.57
2022-11-19T15:03:22.517Z,4.50
2022-11-19T15:05:49.871Z,2.40
2022-11-19T15:08:16.461Z,3.50
2022-11-19T15:11:02.273Z,3.45
2022-11-19T15:13:34.191Z,3.00
2022-11-19T15:16:19.796Z,4.93
2022-11-19T15:18:46.491Z,5.45
2022-11-19T15:21:21.876Z,4.40
2022-11-19T15:24:19.463Z,2.80
2022-11-19T15:27:04.806Z,3.40
2022-11-19T15:30:02.263Z,3.22
2022-11-19T15:32:54.899Z,3.97
2022-11-19T15:35:58.985Z,3.35
2022-11-19T15:38:43.246Z,2.83
2022-11-19T15:41:14.690Z,2.45
2022-11-19T15:43:45.873Z,2.40
2022-11-19T15:46:19.666Z,2.40
2022-11-19T15:49:01.652Z,1.75
2022-11-19T15:51:30.701Z,2.50
2022-11-19T15:54:06.036Z,3.38
2022-11-19T15:56:36.985Z,6.78
2022-11-19T15:59:06.229Z,3.40
2022-11-19T16:01:34.492Z,3.33
2022-11-19T16:04:07.819Z,2.70
2022-11-19T16:06:36.480Z,2.28
2022-11-19T16:09:07.261Z,3.10
2022-11-19T16:11:55.651Z,2.50
2022-11-19T16:14:40.608Z,1.73
2022-11-19T16:17:39.877Z,5.22
2022-11-19T16:20:11.470Z,3.00
2022-11-19T16:22:49.154Z,5.88
2022-11-19T16:25:24.512Z,4.50
2022-11-19T16:27:54.411Z,2.70
2022-11-19T16:30:27.907Z,1.98
2022-11-19T16:32:59.229Z,7.65
2022-11-19T16:35:29.860Z,4.50
2022-11-19T16:37:58.475Z,9.02
2022-11-19T16:40:25.986Z,3.92
2022-11-19T16:42:55.972Z,3.83
2022-11-19T16:45:24.531Z,4.10
2022-11-19T16:48:02.496Z,3.80
2022-11-19T16:50:35.180Z,3.78
2022-11-19T16:53:04.179Z,4.53
2022-11-19T16:55:31.682Z,3.10
2022-11-19T16:58:01.445Z,2.85
2022-11-19T17:00:37.205Z,3.17
2022-11-19T17:03:20.857Z,3.33
2022-11-19T17:05:50.622Z,3.28
2022-11-19T17:08:36.351Z,2.92
2022-11-19T17:11:36.414Z,4.07
2022-11-19T17:14:35.381Z,4.35
2022-11-19T17:17:03.626Z,3.63
2022-11-19T17:19:35.057Z,3.30
2022-11-19T17:22:05.216Z,2.90
2022-11-19T17:24:40.436Z,3.47
2022-11-19T17:27:11.176Z,3.45
2022-11-19T17:29:37.918Z,4.03
2022-11-19T17:32:04.952Z,4.18
2022-11-19T17:34:33.771Z,5.35
2022-11-19T17:37:00.488Z,9.15
2022-11-19T17:39:27.198Z,12.32
2022-11-19T17:42:14.567Z,6.18
2022-11-19T17:44:41.583Z,5.50
2022-11-19T17:47:21.727Z,5.20
2022-11-19T17:49:49.956Z,5.70
2022-11-19T17:52:25.944Z,6.28
2022-11-19T17:54:55.863Z,6.97
2022-11-19T17:57:22.818Z,5.70
2022-11-19T17:59:49.536Z,6.45
2022-11-19T18:02:18.379Z,7.10
2022-11-19T18:04:46.411Z,8.32
2022-11-19T18:07:13.812Z,5.47
2022-11-19T18:09:41.224Z,6.25
2022-11-19T18:12:14.798Z,7.65
2022-11-19T18:14:42.036Z,6.40
2022-11-19T18:17:17.962Z,5.93
2022-11-19T18:19:44.649Z,5.10
2022-11-19T18:22:18.542Z,15.68
2022-11-19T18:24:52.789Z,9.88
2022-11-19T18:27:19.508Z,8.00
2022-11-19T18:29:46.261Z,11.50
2022-11-19T18:32:15.908Z,11.70
2022-11-19T18:34:43.765Z,14.85
2022-11-19T18:37:10.556Z,10.15
2022-11-19T18:39:37.541Z,8.48
2022-11-19T18:42:04.678Z,6.78
2022-11-19T18:44:34.279Z,5.65
2022-11-19T18:47:14.988Z,6.22
2022-11-19T18:49:41.976Z,8.70
2022-11-19T18:52:12.553Z,7.18
2022-11-19T18:54:39.265Z,7.07
2022-11-19T18:57:05.913Z,7.78
2022-11-19T18:59:32.729Z,8.43
2022-11-19T19:01:59.479Z,7.50
2022-11-19T19:04:26.447Z,6.45
2022-11-19T19:06:53.138Z,6.30
2022-11-19T19:09:20.751Z,6.47
2022-11-19T19:12:12.678Z,5.68
2022-11-19T19:14:40.523Z,6.00
2022-11-19T19:17:07.251Z,6.03
2022-11-19T19:19:33.953Z,6.32
2022-11-19T19:22:00.701Z,6.20
2022-11-19T19:24:27.424Z,5.40
2022-11-19T19:26:54.125Z,7.28
2022-11-19T19:29:21.089Z,9.75
2022-11-19T19:31:48.040Z,9.98
2022-11-19T19:34:14.777Z,7.40
2022-11-19T19:36:47.631Z,7.32
2022-11-19T19:39:18.360Z,8.13
2022-11-19T19:41:44.992Z,6.97
2022-11-19T19:44:11.720Z,6.85
2022-11-19T19:46:38.447Z,6.95
2022-11-19T19:49:05.179Z,6.93
2022-11-19T19:51:32.735Z,7.50
2022-11-19T19:54:00.135Z,8.07
2022-11-19T19:56:32.357Z,7.57
2022-11-19T19:59:00.345Z,9.43
2022-11-19T20:01:37.561Z,8.63
2022-11-19T20:04:07.141Z,7.95
2022-11-19T20:06:35.392Z,8.50
2022-11-19T20:09:08.180Z,7.43
2022-11-19T20:11:36.104Z,10.00
2022-11-19T20:14:03.043Z,9.68
2022-11-19T20:16:31.588Z,9.70
2022-11-19T20:18:59.646Z,7.95
2022-11-19T20:21:28.850Z,7.90
2022-11-19T20:23:55.732Z,8.05
2022-11-19T20:26:24.859Z,7.80
2022-11-19T20:29:02.158Z,8.40
2022-11-19T20:31:29.815Z,8.48
2022-11-19T20:33:59.047Z,8.05
2022-11-19T20:36:28.107Z,8.85
2022-11-19T20:38:57.368Z,6.68
2022-11-19T20:41:42.864Z,6.03
2022-11-19T20:44:21.117Z,6.03
2022-11-19T20:46:55.244Z,6.45
2022-11-19T20:49:28.719Z,6.65
2022-11-19T20:51:55.670Z,6.60
2022-11-19T20:54:23.436Z,6.15
2022-11-19T20:56:51.596Z,5.70
2022-11-19T20:59:18.709Z,6.65
2022-11-19T21:01:47.430Z,6.53
2022-11-19T21:04:14.189Z,6.63
2022-11-19T21:06:40.966Z,6.18
2022-11-19T21:09:07.813Z,6.80
2022-11-19T21:11:34.797Z,7.35
2022-11-19T21:14:01.969Z,7.43
2022-11-19T21:16:29.022Z,6.70
2022-11-19T21:18:56.006Z,6.90
2022-11-19T21:21:24.316Z,6.53
2022-11-19T21:23:52.428Z,6.57
2022-11-19T21:26:29.658Z,7.32
2022-11-19T21:28:58.470Z,7.28
2022-11-19T21:31:41.668Z,6.68
2022-11-19T21:34:11.300Z,7.07
2022-11-19T21:36:38.986Z,7.35
2022-11-19T21:39:07.193Z,6.82
2022-11-19T21:41:34.946Z,6.63
2022-11-19T21:44:02.491Z,6.45
2022-11-19T21:46:29.481Z,7.68
2022-11-19T21:48:56.265Z,6.38
2022-11-19T21:51:24.907Z,6.53
2022-11-19T21:53:59.242Z,6.57
2022-11-19T21:56:27.877Z,6.30
2022-11-19T21:58:54.519Z,5.95
2022-11-19T22:01:21.632Z,6.38
2022-11-19T22:03:48.829Z,7.35
2022-11-19T22:06:15.915Z,6.70
2022-11-19T22:08:43.151Z,7.13
2022-11-19T22:11:30.385Z,6.07
2022-11-19T22:14:03.987Z,6.70
2022-11-19T22:16:33.438Z,6.63
2022-11-19T22:19:00.254Z,6.28
2022-11-19T22:21:28.943Z,6.50
2022-11-19T22:23:55.767Z,6.55
2022-11-19T22:26:22.502Z,6.75
2022-11-19T22:28:49.331Z,6.85
2022-11-19T22:31:16.020Z,7.55
2022-11-19T22:33:42.811Z,7.95
2022-11-19T22:36:10.852Z,9.18
2022-11-19T22:38:38.965Z,9.18
2022-11-19T22:41:07.163Z,8.70
2022-11-19T22:43:35.149Z,8.40
2022-11-19T22:46:02.131Z,10.05
2022-11-19T22:48:30.205Z,9.43
2022-11-19T22:50:57.281Z,8.88
2022-11-19T22:53:24.320Z,10.07
2022-11-19T22:55:51.666Z,8.38
2022-11-19T22:58:18.321Z,8.90
2022-11-19T23:00:47.842Z,8.95
2022-11-19T23:03:15.410Z,9.02
2022-11-19T23:05:52.640Z,8.30
2022-11-19T23:08:19.640Z,8.93
2022-11-19T23:10:47.023Z,8.68
2022-11-19T23:13:34.163Z,7.22
2022-11-19T23:16:03.575Z,6.88
2022-11-19T23:18:33.121Z,7.05
2022-11-19T23:21:02.485Z,7.00
2022-11-19T23:23:29.164Z,8.07
2022-11-19T23:26:01.058Z,7.47
2022-11-19T23:28:30.002Z,8.05
2022-11-19T23:30:57.049Z,7.13
2022-11-19T23:33:23.945Z,7.80
2022-11-19T23:35:50.648Z,6.57
2022-11-19T23:38:17.337Z,6.57
2022-11-19T23:40:44.001Z,6.00
2022-11-19T23:43:10.664Z,6.60
2022-11-19T23:45:37.379Z,6.65
2022-11-19T23:48:04.083Z,5.75
2022-11-19T23:50:30.821Z,6.03
2022-11-19T23:52:57.434Z,6.20
2022-11-19T23:55:24.065Z,6.15
2022-11-19T23:57:50.705Z,5.55
